Time;durP1;ratioP1;P1;durP2;ratioP2;P2;SDS_P1;SDS_P2;PMS_P1;PMS_P2;Temp;Humidity;BMP_temperature;BMP_pressure;BME280_temperature;BME280_humidity;BME280_pressure;Samples;Min_cycle;Max_cycle;Signal;HPM_P1;HPM_P2
2022/10/05 00:02:13;;;;;;;;;;;20.80;50.00;;;;;;5030243;28;19932;-66
2022/10/05 00:04:40;;;;;;;;;;;20.80;49.90;;;;;;5038435;28;19941;-66
2022/10/05 00:07:08;;;;;;;;;;;20.80;49.90;;;;;;5032414;28;19975;-66
2022/10/05 00:09:39;;;;;;;;;;;20.80;49.90;;;;;;5031243;28;20019;-66
2022/10/05 00:12:10;;;;;;;;;;;20.80;49.90;;;;;;5032331;28;19925;-66
2022/10/05 00:14:36;;;;;;;;;;;20.80;49.80;;;;;;5028271;28;20027;-66
2022/10/05 00:17:04;;;;;;;;;;;20.80;49.80;;;;;;5044197;28;19925;-66
2022/10/05 00:19:33;;;;;;;;;;;20.80;49.80;;;;;;5028874;28;20024;-66
2022/10/05 00:22:01;;;;;;;;;;;20.80;49.80;;;;;;5042854;28;19925;-66
2022/10/05 00:24:28;;;;;;;;;;;20.80;49.90;;;;;;5041932;28;20024;-66
2022/10/05 00:26:56;;;;;;;;;;;20.80;49.90;;;;;;5030563;28;20004;-66
2022/10/05 00:29:23;;;;;;;;;;;20.80;50.00;;;;;;5047837;28;19964;-66
2022/10/05 00:31:49;;;;;;;;;;;20.80;49.90;;;;;;5031656;28;19925;-66
2022/10/05 00:34:16;;;;;;;;;;;20.80;49.90;;;;;;5043459;28;19929;-66
2022/10/05 00:36:43;;;;;;;;;;;20.80;49.90;;;;;;5031632;28;20455;-66
2022/10/05 00:39:10;;;;;;;;;;;20.80;49.90;;;;;;5031041;28;20082;-66
2022/10/05 00:41:40;;;;;;;;;;;20.80;49.80;;;;;;5047318;28;19929;-66
2022/10/05 00:44:23;;;;;;;;;;;20.80;49.80;;;;;;5031514;28;20020;-66
2022/10/05 00:46:52;;;;;;;;;;;20.80;49.80;;;;;;5018483;28;19930;-66
2022/10/05 00:49:21;;;;;;;;;;;20.80;49.80;;;;;;5046258;28;19925;-66
2022/10/05 00:51:48;;;;;;;;;;;20.80;49.80;;;;;;5031872;28;20407;-66
2022/10/05 00:54:20;;;;;;;;;;;20.80;49.80;;;;;;5047301;28;19925;-66
2022/10/05 00:56:55;;;;;;;;;;;20.80;49.80;;;;;;5040056;28;20000;-66
2022/10/05 00:59:28;;;;;;;;;;;20.80;49.80;;;;;;5042914;28;19964;-66
2022/10/05 01:01:55;;;;;;;;;;;20.80;49.70;;;;;;5047220;28;20024;-66
2022/10/05 01:04:24;;;;;;;;;;;20.80;49.80;;;;;;5045382;28;19932;-66
2022/10/05 01:06:55;;;;;;;;;;;20.80;49.80;;;;;;5031552;28;20016;-66
2022/10/05 01:09:22;;;;;;;;;;;20.80;49.70;;;;;;5029735;28;19971;-66
2022/10/05 01:11:50;;;;;;;;;;;20.80;49.70;;;;;;5028097;28;19995;-66
2022/10/05 01:14:18;;;;;;;;;;;20.80;49.70;;;;;;5047002;28;19973;-65
2022/10/05 01:16:47;;;;;;;;;;;20.80;49.70;;;;;;5030127;28;20452;-66
2022/10/05 01:19:19;;;;;;;;;;;20.80;50.30;;;;;;5030712;28;20290;-66
2022/10/05 01:21:47;;;;;;;;;;;20.80;49.70;;;;;;5030428;28;19925;-66
2022/10/05 01:24:29;;;;;;;;;;;20.80;49.70;;;;;;5046122;28;20302;-66
2022/10/05 01:27:02;;;;;;;;;;;20.80;49.70;;;;;;5043502;28;19925;-65
2022/10/05 01:29:31;;;;;;;;;;;20.80;49.70;;;;;;5029266;28;19926;-66
2022/10/05 01:31:59;;;;;;;;;;;20.80;49.70;;;;;;5022736;28;20447;-66
2022/10/05 01:34:27;;;;;;;;;;;20.80;49.70;;;;;;5012875;28;19930;-66
2022/10/05 01:36:55;;;;;;;;;;;20.80;49.70;;;;;;5031507;28;19974;-66
2022/10/05 01:39:23;;;;;;;;;;;20.80;49.70;;;;;;5044183;28;19930;-66
2022/10/05 01:41:52;;;;;;;;;;;20.80;49.70;;;;;;5031054;28;19994;-66
2022/10/05 01:44:19;;;;;;;;;;;20.80;49.70;;;;;;5045366;28;19931;-66
2022/10/05 01:46:49;;;;;;;;;;;20.80;49.70;;;;;;5045391;28;20024;-66
2022/10/05 01:49:18;;;;;;;;;;;20.80;49.70;;;;;;5029632;28;19925;-66
2022/10/05 01:51:47;;;;;;;;;;;20.80;49.70;;;;;;5026971;28;19929;-66
2022/10/05 01:54:17;;;;;;;;;;;20.80;49.70;;;;;;5030225;28;19957;-66
2022/10/05 01:56:46;;;;;;;;;;;20.80;49.70;;;;;;5029459;28;20306;-66
2022/10/05 01:59:17;;;;;;;;;;;20.80;49.60;;;;;;5046731;28;19925;-66
2022/10/05 02:01:45;;;;;;;;;;;20.80;49.70;;;;;;5014135;28;20000;-66
2022/10/05 02:04:14;;;;;;;;;;;20.80;49.70;;;;;;5030933;28;20016;-66
2022/10/05 02:06:41;;;;;;;;;;;20.80;49.70;;;;;;5025117;28;19929;-66
2022/10/05 02:09:09;;;;;;;;;;;20.80;49.70;;;;;;5032574;28;19925;-66
2022/10/05 02:11:36;;;;;;;;;;;20.80;49.70;;;;;;5045973;28;19925;-66
2022/10/05 02:14:06;;;;;;;;;;;20.80;49.60;;;;;;5029878;28;20031;-66
2022/10/05 02:16:33;;;;;;;;;;;20.80;49.70;;;;;;5029704;28;19976;-66
2022/10/05 02:19:02;;;;;;;;;;;20.80;49.60;;;;;;5046091;28;20036;-66
2022/10/05 02:21:30;;;;;;;;;;;20.80;49.70;;;;;;5044298;28;20318;-66
2022/10/05 02:23:57;;;;;;;;;;;20.80;49.60;;;;;;5029674;28;19925;-66
2022/10/05 02:26:24;;;;;;;;;;;20.80;49.60;;;;;;5048558;28;19996;-66
2022/10/05 02:28:53;;;;;;;;;;;20.80;49.60;;;;;;5033073;28;19925;-66
2022/10/05 02:31:22;;;;;;;;;;;20.80;49.60;;;;;;5046005;28;19925;-66
2022/10/05 02:33:48;;;;;;;;;;;20.80;49.60;;;;;;5046185;28;19925;-66
2022/10/05 02:36:16;;;;;;;;;;;20.80;49.60;;;;;;5045638;28;19925;-67
2022/10/05 02:38:47;;;;;;;;;;;20.80;49.70;;;;;;5028999;28;20378;-67
2022/10/05 02:41:15;;;;;;;;;;;20.80;49.70;;;;;;5030770;28;20011;-66
2022/10/05 02:43:44;;;;;;;;;;;20.70;49.60;;;;;;5045751;28;19925;-67
2022/10/05 02:46:13;;;;;;;;;;;20.80;49.70;;;;;;5046332;28;19948;-67
2022/10/05 02:48:42;;;;;;;;;;;20.80;49.70;;;;;;5032419;28;19951;-67
2022/10/05 02:51:11;;;;;;;;;;;20.80;50.30;;;;;;5031081;28;19960;-67
2022/10/05 02:53:39;;;;;;;;;;;20.80;49.60;;;;;;5042193;28;19971;-67
2022/10/05 02:56:10;;;;;;;;;;;20.80;49.60;;;;;;5047487;28;19929;-67
2022/10/05 02:58:38;;;;;;;;;;;20.80;49.60;;;;;;5044457;28;19933;-66
2022/10/05 03:01:07;;;;;;;;;;;20.80;49.60;;;;;;5046321;28;19925;-67
2022/10/05 03:03:34;;;;;;;;;;;20.80;49.70;;;;;;5032378;28;20036;-67
2022/10/05 03:06:01;;;;;;;;;;;20.80;49.60;;;;;;5049827;28;19925;-67
2022/10/05 03:08:30;;;;;;;;;;;20.80;49.60;;;;;;5032090;28;19932;-67
2022/10/05 03:10:59;;;;;;;;;;;20.80;49.60;;;;;;5034404;28;20127;-67
2022/10/05 03:13:30;;;;;;;;;;;20.70;49.80;;;;;;5031277;28;20023;-67
2022/10/05 03:16:01;;;;;;;;;;;20.70;49.60;;;;;;5034842;28;19935;-67
2022/10/05 03:18:31;;;;;;;;;;;20.80;49.60;;;;;;5032810;28;20026;-66
2022/10/05 03:21:01;;;;;;;;;;;20.70;49.60;;;;;;5032430;28;19940;-66
2022/10/05 03:23:33;;;;;;;;;;;20.80;49.70;;;;;;5041364;28;20021;-66
2022/10/05 03:26:07;;;;;;;;;;;20.80;49.70;;;;;;5049285;28;19925;-67
2022/10/05 03:28:37;;;;;;;;;;;20.80;49.60;;;;;;5030683;28;19925;-66
2022/10/05 03:31:04;;;;;;;;;;;20.70;49.60;;;;;;5032453;28;19932;-66
2022/10/05 03:33:34;;;;;;;;;;;20.80;49.70;;;;;;5031005;28;19929;-66
2022/10/05 03:36:06;;;;;;;;;;;20.80;49.70;;;;;;5032683;28;19925;-67
2022/10/05 03:38:34;;;;;;;;;;;20.80;49.70;;;;;;5031771;28;19932;-66
2022/10/05 03:41:03;;;;;;;;;;;20.70;49.60;;;;;;5046419;28;19929;-67
2022/10/05 03:43:40;;;;;;;;;;;20.80;49.70;;;;;;5032827;28;20371;-66
2022/10/05 03:46:08;;;;;;;;;;;20.80;49.70;;;;;;5030147;28;19934;-66
2022/10/05 03:48:37;;;;;;;;;;;20.70;49.60;;;;;;5031124;28;19933;-66
2022/10/05 03:51:06;;;;;;;;;;;20.80;49.70;;;;;;5027224;28;19932;-66
2022/10/05 03:53:33;;;;;;;;;;;20.80;49.70;;;;;;5031952;28;20020;-67
2022/10/05 03:56:06;;;;;;;;;;;20.80;49.70;;;;;;5030596;28;20338;-67
2022/10/05 03:58:34;;;;;;;;;;;20.80;49.70;;;;;;5050630;28;19925;-67
2022/10/05 04:01:04;;;;;;;;;;;20.80;49.80;;;;;;5029193;28;19925;-67
2022/10/05 04:03:33;;;;;;;;;;;20.70;49.60;;;;;;5027379;28;20015;-67
2022/10/05 04:06:01;;;;;;;;;;;20.70;49.60;;;;;;5031267;28;20001;-66
2022/10/05 04:08:31;;;;;;;;;;;20.80;49.70;;;;;;5029192;28;19932;-66
2022/10/05 04:10:58;;;;;;;;;;;20.70;49.70;;;;;;5028737;28;20116;-66
2022/10/05 04:13:27;;;;;;;;;;;20.70;49.70;;;;;;5043829;28;20339;-66
2022/10/05 04:15:54;;;;;;;;;;;20.70;49.70;;;;;;5031876;28;19991;-66
2022/10/05 04:18:25;;;;;;;;;;;20.80;49.80;;;;;;5047099;28;19925;-66
2022/10/05 04:20:53;;;;;;;;;;;20.70;49.70;;;;;;5032547;28;19925;-67
2022/10/05 04:23:21;;;;;;;;;;;20.80;49.80;;;;;;5031585;28;19982;-66
2022/10/05 04:25:49;;;;;;;;;;;20.80;49.80;;;;;;5030882;28;19968;-66
2022/10/05 04:28:17;;;;;;;;;;;20.80;49.80;;;;;;5032719;28;20019;-67
2022/10/05 04:30:44;;;;;;;;;;;20.80;49.80;;;;;;5047647;28;19968;-66
2022/10/05 04:33:11;;;;;;;;;;;20.80;49.80;;;;;;5031558;28;19925;-66
2022/10/05 04:35:48;;;;;;;;;;;20.80;49.80;;;;;;5032054;28;19933;-66
2022/10/05 04:38:40;;;;;;;;;;;20.80;49.80;;;;;;5044768;28;19956;-67
2022/10/05 04:41:11;;;;;;;;;;;20.70;49.70;;;;;;5029978;28;19925;-66
2022/10/05 04:43:40;;;;;;;;;;;20.80;49.80;;;;;;5030734;28;20008;-67
2022/10/05 04:46:11;;;;;;;;;;;20.70;49.70;;;;;;5046242;28;19983;-67
2022/10/05 04:48:46;;;;;;;;;;;20.70;49.70;;;;;;5031725;28;19929;-67
2022/10/05 04:51:19;;;;;;;;;;;20.70;49.70;;;;;;5047476;28;20144;-67
2022/10/05 04:53:46;;;;;;;;;;;20.80;49.80;;;;;;5047878;28;20621;-67
2022/10/05 04:56:14;;;;;;;;;;;20.80;49.80;;;;;;5031786;28;19975;-67
2022/10/05 04:58:46;;;;;;;;;;;20.70;49.70;;;;;;5030019;28;19931;-67
2022/10/05 05:01:17;;;;;;;;;;;20.70;49.70;;;;;;5047041;28;19967;-67
2022/10/05 05:03:49;;;;;;;;;;;20.80;49.80;;;;;;5029752;28;19931;-67
2022/10/05 05:06:20;;;;;;;;;;;20.70;49.70;;;;;;5045761;28;20024;-67
2022/10/05 05:08:54;;;;;;;;;;;20.80;49.80;;;;;;5038876;28;19932;-67
2022/10/05 05:11:23;;;;;;;;;;;20.70;49.70;;;;;;5043109;28;19970;-67
2022/10/05 05:13:58;;;;;;;;;;;20.70;49.70;;;;;;5032938;28;20363;-67
2022/10/05 05:16:29;;;;;;;;;;;20.70;49.80;;;;;;5043261;28;20697;-67
2022/10/05 05:19:06;;;;;;;;;;;20.80;49.80;;;;;;5029276;28;20490;-67
2022/10/05 05:21:37;;;;;;;;;;;20.70;49.70;;;;;;5047011;28;19936;-67
2022/10/05 05:24:05;;;;;;;;;;;20.80;49.80;;;;;;5029753;28;19932;-67
2022/10/05 05:26:34;;;;;;;;;;;20.70;49.70;;;;;;5030953;28;19925;-67
2022/10/05 05:29:04;;;;;;;;;;;20.70;49.80;;;;;;5040685;28;20305;-67
2022/10/05 05:31:32;;;;;;;;;;;20.80;49.90;;;;;;5023421;28;19975;-67
2022/10/05 05:34:01;;;;;;;;;;;20.70;49.80;;;;;;5029998;28;19933;-67
2022/10/05 05:36:43;;;;;;;;;;;20.80;49.80;;;;;;5046878;28;20520;-67
2022/10/05 05:39:20;;;;;;;;;;;20.80;49.90;;;;;;5029307;28;19961;-67
2022/10/05 05:41:48;;;;;;;;;;;20.80;49.90;;;;;;5029721;28;20020;-67
2022/10/05 05:44:33;;;;;;;;;;;20.80;49.90;;;;;;5046575;28;19948;-67
2022/10/05 05:47:00;;;;;;;;;;;20.70;49.80;;;;;;5025379;28;20024;-67
2022/10/05 05:49:29;;;;;;;;;;;20.80;49.90;;;;;;5043692;28;20397;-67
2022/10/05 05:51:57;;;;;;;;;;;20.80;49.90;;;;;;5030045;28;19968;-67
2022/10/05 05:54:38;;;;;;;;;;;20.80;49.90;;;;;;5046378;28;20406;-67
2022/10/05 05:57:07;;;;;;;;;;;20.70;49.80;;;;;;5028986;28;19948;-67
2022/10/05 05:59:43;;;;;;;;;;;20.80;50.00;;;;;;5045623;28;19926;-68
2022/10/05 06:02:11;;;;;;;;;;;20.80;49.90;;;;;;5043554;28;19968;-67
2022/10/05 06:04:38;;;;;;;;;;;20.70;49.80;;;;;;5029639;28;20018;-66
2022/10/05 06:07:05;;;;;;;;;;;20.80;49.90;;;;;;5046222;28;19975;-66
2022/10/05 06:09:35;;;;;;;;;;;20.80;50.00;;;;;;5030704;28;20027;-67
2022/10/05 06:12:03;;;;;;;;;;;20.80;50.00;;;;;;5046771;28;19925;-67
2022/10/05 06:14:32;;;;;;;;;;;20.80;50.00;;;;;;5023597;28;19932;-66
2022/10/05 06:16:59;;;;;;;;;;;20.80;49.90;;;;;;5031062;28;20012;-67
2022/10/05 06:19:26;;;;;;;;;;;20.80;49.90;;;;;;5050927;28;19925;-67
2022/10/05 06:21:53;;;;;;;;;;;20.80;49.90;;;;;;5030514;28;19929;-66
2022/10/05 06:24:21;;;;;;;;;;;20.80;49.90;;;;;;5045346;28;19940;-67
2022/10/05 06:27:11;;;;;;;;;;;20.80;50.00;;;;;;5030781;28;19933;-67
2022/10/05 06:29:43;;;;;;;;;;;20.80;49.90;;;;;;5009023;28;20322;-67
2022/10/05 06:32:12;;;;;;;;;;;20.80;49.90;;;;;;5033244;28;20017;-67
2022/10/05 06:34:43;;;;;;;;;;;20.70;49.90;;;;;;5032948;28;19925;-66
2022/10/05 06:37:10;;;;;;;;;;;20.70;49.90;;;;;;5049884;28;19926;-67
2022/10/05 06:39:41;;;;;;;;;;;20.70;49.90;;;;;;5050063;28;20024;-67
2022/10/05 06:42:12;;;;;;;;;;;20.70;49.90;;;;;;5030673;28;19925;-67
2022/10/05 06:44:42;;;;;;;;;;;20.70;49.90;;;;;;5030900;28;19934;-67
2022/10/05 06:47:10;;;;;;;;;;;20.70;49.90;;;;;;5033648;28;20353;-66
2022/10/05 06:49:38;;;;;;;;;;;20.70;49.90;;;;;;5046958;28;19933;-68
2022/10/05 06:52:08;;;;;;;;;;;20.70;49.90;;;;;;5023995;28;20021;-67
2022/10/05 06:54:41;;;;;;;;;;;20.80;50.00;;;;;;5033232;28;20403;-68
2022/10/05 06:57:08;;;;;;;;;;;;;;;;;;5022047;28;19932;-65
2022/10/05 06:59:37;;;;;;;;;;;20.70;49.50;;;;;;5049478;28;19996;-68
2022/10/05 07:02:06;;;;;;;;;;;20.70;50.00;;;;;;5047861;28;19995;-67
2022/10/05 07:04:38;;;;;;;;;;;20.70;50.00;;;;;;5022237;28;20024;-67
2022/10/05 07:07:07;;;;;;;;;;;20.80;50.70;;;;;;5022923;28;20116;-66
2022/10/05 07:09:36;;;;;;;;;;;20.80;50.20;;;;;;5038383;28;19979;-68
2022/10/05 07:12:09;;;;;;;;;;;20.80;50.20;;;;;;5034254;28;19929;-69
2022/10/05 07:14:46;;;;;;;;;;;20.80;50.30;;;;;;5032081;28;19968;-69
2022/10/05 07:17:20;;;;;;;;;;;20.80;50.20;;;;;;5027618;28;19925;-68
2022/10/05 07:19:51;;;;;;;;;;;20.80;50.30;;;;;;5028829;28;20012;-70
2022/10/05 07:22:39;;;;;;;;;;;20.80;50.30;;;;;;5027575;28;19932;-67
2022/10/05 07:25:07;;;;;;;;;;;20.80;50.30;;;;;;4990259;28;19948;-69
2022/10/05 07:27:34;;;;;;;;;;;20.80;50.30;;;;;;5033652;28;20380;-71
2022/10/05 07:30:02;;;;;;;;;;;20.80;50.30;;;;;;5035675;28;19929;-67
2022/10/05 07:32:33;;;;;;;;;;;20.80;50.40;;;;;;5033800;28;19925;-68
2022/10/05 07:35:01;;;;;;;;;;;20.90;50.40;;;;;;5027250;28;19926;-67
2022/10/05 07:40:15;;;;;;;;;;;20.90;50.50;;;;;;5045927;28;19925;-67
2022/10/05 07:42:44;;;;;;;;;;;20.90;50.50;;;;;;5047780;28;19932;-67
2022/10/05 07:45:14;;;;;;;;;;;20.90;50.50;;;;;;5034993;28;19940;-67
2022/10/05 07:47:43;;;;;;;;;;;20.90;50.50;;;;;;5040327;28;19957;-67
2022/10/05 07:50:13;;;;;;;;;;;20.90;50.50;;;;;;5045647;28;20286;-67
2022/10/05 07:52:40;;;;;;;;;;;20.90;50.50;;;;;;5034892;28;19986;-67
2022/10/05 07:55:12;;;;;;;;;;;20.90;50.50;;;;;;5048709;28;19933;-67
2022/10/05 07:57:40;;;;;;;;;;;20.90;50.60;;;;;;5032899;28;19987;-66
2022/10/05 08:00:10;;;;;;;;;;;20.90;50.50;;;;;;5034816;28;19929;-67
2022/10/05 08:02:43;;;;;;;;;;;20.90;50.60;;;;;;5043250;28;20453;-67
2022/10/05 08:05:11;;;;;;;;;;;20.90;50.60;;;;;;5030299;28;19964;-68
2022/10/05 08:07:38;;;;;;;;;;;20.90;50.60;;;;;;5031346;28;19929;-68
2022/10/05 08:10:12;;;;;;;;;;;20.90;50.60;;;;;;5033458;28;19925;-67
2022/10/05 08:12:40;;;;;;;;;;;20.90;50.60;;;;;;5033386;28;19925;-68
2022/10/05 08:15:09;;;;;;;;;;;20.90;50.60;;;;;;5037081;28;19944;-67
2022/10/05 08:17:39;;;;;;;;;;;21.00;50.70;;;;;;5032746;28;19929;-68
2022/10/05 08:20:09;;;;;;;;;;;21.00;50.70;;;;;;5038632;28;19956;-67
2022/10/05 08:22:40;;;;;;;;;;;21.00;50.70;;;;;;5029006;28;20007;-67
2022/10/05 08:25:09;;;;;;;;;;;21.00;50.70;;;;;;5032212;28;20032;-68
2022/10/05 08:27:38;;;;;;;;;;;21.00;50.70;;;;;;5031564;28;19960;-67
2022/10/05 08:30:06;;;;;;;;;;;21.00;50.90;;;;;;5032134;28;19952;-67
2022/10/05 08:32:34;;;;;;;;;;;21.00;50.90;;;;;;5031259;28;19926;-67
2022/10/05 08:35:02;;;;;;;;;;;21.00;50.90;;;;;;5033415;28;19932;-67
2022/10/05 08:37:29;;;;;;;;;;;21.00;51.00;;;;;;5030480;28;19929;-66
2022/10/05 08:40:00;;;;;;;;;;;21.00;51.00;;;;;;5046502;28;19986;-67
2022/10/05 08:42:35;;;;;;;;;;;21.00;51.10;;;;;;5044356;28;19925;-68
2022/10/05 08:45:20;;;;;;;;;;;21.10;51.20;;;;;;5029288;28;19925;-68
2022/10/05 08:48:08;;;;;;;;;;;21.10;51.20;;;;;;5043269;28;19933;-68
2022/10/05 08:50:47;;;;;;;;;;;21.10;51.20;;;;;;5021768;28;19929;-69
2022/10/05 08:53:20;;;;;;;;;;;21.10;51.30;;;;;;5035202;28;20273;-69
2022/10/05 08:55:54;;;;;;;;;;;21.10;51.30;;;;;;5046922;28;19925;-67
2022/10/05 08:58:39;;;;;;;;;;;21.10;51.30;;;;;;5026686;28;19929;-68
2022/10/05 09:01:07;;;;;;;;;;;21.10;51.40;;;;;;5029214;28;19992;-67
2022/10/05 09:03:43;;;;;;;;;;;21.10;51.40;;;;;;5031762;28;19931;-70
2022/10/05 09:06:24;;;;;;;;;;;21.20;51.50;;;;;;5047271;28;19975;-65
2022/10/05 09:09:15;;;;;;;;;;;21.20;51.60;;;;;;5041396;28;19983;-67
2022/10/05 09:11:45;;;;;;;;;;;21.20;51.60;;;;;;5021807;28;19925;-68
2022/10/05 09:14:24;;;;;;;;;;;21.20;51.50;;;;;;5043301;28;19979;-65
2022/10/05 09:16:52;;;;;;;;;;;21.20;51.50;;;;;;5036198;28;19925;-64
2022/10/05 09:19:31;;;;;;;;;;;21.20;51.50;;;;;;5027853;28;19955;-65
2022/10/05 09:21:57;;;;;;;;;;;21.20;51.50;;;;;;5045087;28;19932;-66
2022/10/05 09:24:28;;;;;;;;;;;21.20;51.50;;;;;;5028711;28;19969;-65
2022/10/05 09:27:09;;;;;;;;;;;21.20;51.50;;;;;;5045080;28;19925;-65
2022/10/05 09:29:47;;;;;;;;;;;21.20;51.50;;;;;;5026961;28;19933;-66
2022/10/05 09:32:22;;;;;;;;;;;21.20;51.50;;;;;;5047368;28;19929;-65
2022/10/05 09:34:52;;;;;;;;;;;21.20;51.40;;;;;;5044001;28;19925;-65
2022/10/05 09:37:24;;;;;;;;;;;21.20;51.50;;;;;;5026310;28;19929;-65
2022/10/05 09:40:06;;;;;;;;;;;21.20;51.50;;;;;;5046000;28;20341;-64
2022/10/05 09:42:45;;;;;;;;;;;21.20;51.50;;;;;;5028406;28;20047;-66
2022/10/05 09:45:32;;;;;;;;;;;21.20;51.50;;;;;;5043923;28;19933;-67
2022/10/05 09:48:14;;;;;;;;;;;21.20;51.50;;;;;;5021874;28;19933;-65
2022/10/05 09:50:59;;;;;;;;;;;21.20;51.50;;;;;;5026882;28;19985;-67
2022/10/05 09:53:51;;;;;;;;;;;21.20;51.50;;;;;;5029898;28;19925;-65
2022/10/05 09:56:22;;;;;;;;;;;21.20;51.50;;;;;;5038876;28;19926;-66
2022/10/05 09:59:06;;;;;;;;;;;21.20;51.50;;;;;;5040472;28;19967;-66
2022/10/05 10:01:36;;;;;;;;;;;21.30;51.60;;;;;;5046606;28;19932;-65
2022/10/05 10:04:08;;;;;;;;;;;21.30;51.60;;;;;;5047260;28;19957;-65
2022/10/05 10:07:03;;;;;;;;;;;21.30;51.50;;;;;;5021862;28;19933;-65
2022/10/05 10:09:33;;;;;;;;;;;21.30;51.60;;;;;;4994033;28;20025;-65
2022/10/05 10:12:21;;;;;;;;;;;21.30;51.70;;;;;;5046207;28;19929;-65
2022/10/05 10:15:05;;;;;;;;;;;21.30;51.70;;;;;;5037654;28;19939;-65
2022/10/05 10:17:42;;;;;;;;;;;21.30;51.80;;;;;;5045769;28;19969;-66
2022/10/05 10:20:13;;;;;;;;;;;21.30;51.80;;;;;;5048104;28;19970;-64
2022/10/05 10:22:57;;;;;;;;;;;21.30;51.80;;;;;;5032095;28;19987;-65
2022/10/05 10:25:33;;;;;;;;;;;21.30;51.80;;;;;;5028728;28;20016;-64
2022/10/05 10:28:06;;;;;;;;;;;21.30;51.80;;;;;;5029196;28;19929;-65
2022/10/05 10:30:39;;;;;;;;;;;21.30;51.80;;;;;;5026115;28;19964;-64
2022/10/05 10:33:12;;;;;;;;;;;21.30;51.90;;;;;;5040167;28;19983;-65
2022/10/05 10:35:39;;;;;;;;;;;21.30;51.80;;;;;;5029354;28;20058;-64
2022/10/05 10:38:22;;;;;;;;;;;21.40;51.90;;;;;;5042277;28;19972;-65
2022/10/05 10:40:54;;;;;;;;;;;21.40;51.90;;;;;;5031504;28;20000;-64
2022/10/05 10:43:39;;;;;;;;;;;21.40;52.00;;;;;;5030535;28;19956;-65
2022/10/05 10:46:08;;;;;;;;;;;21.40;52.00;;;;;;5040900;28;20021;-66
2022/10/05 10:48:59;;;;;;;;;;;21.40;52.00;;;;;;5030551;28;20396;-67
2022/10/05 10:51:43;;;;;;;;;;;21.40;52.00;;;;;;5022438;28;20017;-67
2022/10/05 10:54:25;;;;;;;;;;;21.40;52.00;;;;;;5029474;28;19957;-66
2022/10/05 10:57:14;;;;;;;;;;;21.40;52.10;;;;;;5031825;28;19957;-66
2022/10/05 10:59:47;;;;;;;;;;;21.40;52.00;;;;;;5031084;28;20347;-66
2022/10/05 11:02:18;;;;;;;;;;;21.40;52.00;;;;;;5029859;28;19933;-66
2022/10/05 11:04:54;;;;;;;;;;;21.40;52.00;;;;;;5035036;28;20019;-66
2022/10/05 11:07:36;;;;;;;;;;;21.40;52.00;;;;;;5044003;28;19936;-66
2022/10/05 11:10:20;;;;;;;;;;;21.40;52.00;;;;;;5046232;28;20019;-66
2022/10/05 11:13:05;;;;;;;;;;;21.40;52.00;;;;;;5041585;28;19926;-66
2022/10/05 11:15:44;;;;;;;;;;;21.40;52.00;;;;;;5026325;28;19971;-66
2022/10/05 11:18:14;;;;;;;;;;;21.40;52.00;;;;;;5032406;28;19940;-65
2022/10/05 11:20:42;;;;;;;;;;;21.40;52.00;;;;;;5037687;28;19935;-66
2022/10/05 11:23:20;;;;;;;;;;;21.40;52.00;;;;;;5034154;28;19925;-66
2022/10/05 11:25:48;;;;;;;;;;;21.40;52.00;;;;;;5052659;28;20019;-66
2022/10/05 11:28:42;;;;;;;;;;;21.40;52.00;;;;;;5027589;28;20018;-65
2022/10/05 11:31:25;;;;;;;;;;;21.40;52.00;;;;;;5001162;28;19928;-65
2022/10/05 11:34:00;;;;;;;;;;;21.40;52.10;;;;;;5019986;28;19929;-64
2022/10/05 11:36:42;;;;;;;;;;;21.40;52.20;;;;;;5027120;28;19932;-66
2022/10/05 11:39:16;;;;;;;;;;;21.40;52.20;;;;;;5032832;28;19925;-66
2022/10/05 11:41:54;;;;;;;;;;;21.40;52.20;;;;;;5032493;28;19925;-66
2022/10/05 11:44:26;;;;;;;;;;;21.40;52.20;;;;;;5024653;28;19952;-65
2022/10/05 11:46:54;;;;;;;;;;;21.40;52.10;;;;;;5047033;28;19925;-64
2022/10/05 11:49:23;;;;;;;;;;;21.40;52.00;;;;;;5032889;28;19951;-66
2022/10/05 11:51:52;;;;;;;;;;;21.40;52.00;;;;;;5049164;28;19969;-66
2022/10/05 11:54:23;;;;;;;;;;;21.30;51.90;;;;;;5046639;28;20437;-65
2022/10/05 11:56:51;;;;;;;;;;;21.40;51.90;;;;;;5032402;28;19925;-65
2022/10/05 11:59:19;;;;;;;;;;;21.30;51.70;;;;;;5034230;28;19929;-66
2022/10/05 12:01:48;;;;;;;;;;;21.30;51.70;;;;;;5031931;28;19975;-65
2022/10/05 12:04:17;;;;;;;;;;;21.30;51.60;;;;;;5049190;28;19925;-65
2022/10/05 12:06:48;;;;;;;;;;;21.30;51.50;;;;;;5039103;28;19947;-66
2022/10/05 12:09:18;;;;;;;;;;;21.30;51.50;;;;;;5032995;28;19925;-65
2022/10/05 12:11:52;;;;;;;;;;;21.30;51.40;;;;;;5028319;28;19971;-65
2022/10/05 12:14:23;;;;;;;;;;;21.30;51.40;;;;;;5031938;28;19925;-65
2022/10/05 12:16:51;;;;;;;;;;;21.30;51.40;;;;;;5032515;28;19925;-65
2022/10/05 12:19:24;;;;;;;;;;;21.30;51.30;;;;;;5027234;28;19955;-66
2022/10/05 12:21:52;;;;;;;;;;;21.30;51.90;;;;;;5050318;28;19936;-69
2022/10/05 12:24:19;;;;;;;;;;;21.30;51.30;;;;;;5032799;28;19932;-66
2022/10/05 12:26:47;;;;;;;;;;;21.30;51.20;;;;;;5048510;28;19933;-65
2022/10/05 12:29:16;;;;;;;;;;;21.30;51.20;;;;;;5047625;28;19932;-66
2022/10/05 12:31:45;;;;;;;;;;;21.30;51.20;;;;;;5046975;28;20024;-66
2022/10/05 12:34:14;;;;;;;;;;;21.20;51.10;;;;;;5022778;28;20368;-66
2022/10/05 12:36:42;;;;;;;;;;;21.20;51.00;;;;;;5032221;28;20118;-65
2022/10/05 12:39:13;;;;;;;;;;;21.20;51.00;;;;;;5050831;28;19931;-66
2022/10/05 12:41:41;;;;;;;;;;;21.20;50.90;;;;;;5047575;28;19991;-65
2022/10/05 12:44:11;;;;;;;;;;;21.20;50.90;;;;;;5047986;28;19929;-65
2022/10/05 12:46:39;;;;;;;;;;;21.20;50.90;;;;;;5032481;28;20011;-65
2022/10/05 12:49:14;;;;;;;;;;;21.20;50.90;;;;;;5032416;28;19933;-64
2022/10/05 12:51:42;;;;;;;;;;;21.20;50.90;;;;;;5048076;28;19931;-64
2022/10/05 12:54:12;;;;;;;;;;;21.20;50.90;;;;;;5027379;28;19929;-64
2022/10/05 12:56:42;;;;;;;;;;;21.20;50.90;;;;;;5031370;28;19925;-65
2022/10/05 12:59:13;;;;;;;;;;;21.20;50.90;;;;;;5049942;28;19931;-64
2022/10/05 13:01:40;;;;;;;;;;;21.20;50.90;;;;;;5026938;28;19936;-65
2022/10/05 13:04:11;;;;;;;;;;;21.20;50.90;;;;;;5046067;28;20026;-66
2022/10/05 13:06:39;;;;;;;;;;;21.20;50.90;;;;;;5045434;28;19933;-66
2022/10/05 13:09:09;;;;;;;;;;;21.20;50.90;;;;;;5029742;28;19925;-66
2022/10/05 13:11:37;;;;;;;;;;;21.20;50.90;;;;;;5029659;28;19987;-66
2022/10/05 13:14:06;;;;;;;;;;;21.20;50.90;;;;;;5044017;28;20012;-65
2022/10/05 13:16:35;;;;;;;;;;;21.20;50.90;;;;;;5034014;28;20019;-65
2022/10/05 13:19:05;;;;;;;;;;;21.20;50.90;;;;;;5030355;28;20370;-66
2022/10/05 13:21:33;;;;;;;;;;;21.20;50.90;;;;;;5047055;28;19925;-66
2022/10/05 13:24:01;;;;;;;;;;;21.20;50.90;;;;;;5030869;28;19936;-66
2022/10/05 13:26:31;;;;;;;;;;;21.20;50.90;;;;;;5047466;28;19925;-65
2022/10/05 13:28:58;;;;;;;;;;;21.20;50.90;;;;;;5043912;28;20039;-66
2022/10/05 13:31:27;;;;;;;;;;;21.20;50.90;;;;;;5047752;28;19957;-67
2022/10/05 13:34:07;;;;;;;;;;;21.20;50.90;;;;;;5030363;28;20006;-66
2022/10/05 13:36:39;;;;;;;;;;;21.20;50.90;;;;;;5024944;28;20024;-65
2022/10/05 13:39:09;;;;;;;;;;;21.20;50.90;;;;;;5046791;28;19996;-66
2022/10/05 13:41:40;;;;;;;;;;;21.20;50.90;;;;;;5043447;28;19925;-66
2022/10/05 13:44:10;;;;;;;;;;;21.20;50.80;;;;;;5034562;28;20004;-67
2022/10/05 13:46:37;;;;;;;;;;;21.20;50.90;;;;;;5043031;28;19929;-67
2022/10/05 13:49:14;;;;;;;;;;;21.20;50.90;;;;;;5026530;28;20377;-67
2022/10/05 13:51:44;;;;;;;;;;;21.20;50.90;;;;;;5029277;28;20334;-66
2022/10/05 13:54:14;;;;;;;;;;;21.20;50.90;;;;;;5049934;28;20024;-66
2022/10/05 13:56:43;;;;;;;;;;;21.20;50.90;;;;;;5033305;28;19964;-68
2022/10/05 13:59:13;;;;;;;;;;;21.20;50.90;;;;;;5044511;28;19925;-66
2022/10/05 14:01:41;;;;;;;;;;;21.20;50.90;;;;;;5029059;28;20020;-66
2022/10/05 14:04:15;;;;;;;;;;;21.20;50.90;;;;;;5048618;28;19925;-65
2022/10/05 14:06:42;;;;;;;;;;;21.20;50.90;;;;;;5044065;28;19925;-67
2022/10/05 14:09:10;;;;;;;;;;;21.20;50.90;;;;;;5030097;28;20023;-65
2022/10/05 14:11:39;;;;;;;;;;;21.20;50.90;;;;;;5029577;28;19929;-65
2022/10/05 14:14:13;;;;;;;;;;;21.20;51.00;;;;;;5027558;28;19933;-66
2022/10/05 14:16:43;;;;;;;;;;;21.30;51.00;;;;;;5045803;28;19932;-66
2022/10/05 14:19:15;;;;;;;;;;;21.30;51.00;;;;;;5043609;28;19925;-64
2022/10/05 14:21:43;;;;;;;;;;;21.20;51.00;;;;;;5028917;28;19987;-65
2022/10/05 14:24:19;;;;;;;;;;;21.30;51.10;;;;;;5045234;28;19948;-66
2022/10/05 14:26:50;;;;;;;;;;;21.20;51.00;;;;;;5021850;28;20024;-66
2022/10/05 14:29:18;;;;;;;;;;;21.30;51.10;;;;;;5046307;28;19999;-66
2022/10/05 14:31:50;;;;;;;;;;;21.30;51.10;;;;;;5028337;28;19987;-66
2022/10/05 14:34:19;;;;;;;;;;;21.20;51.00;;;;;;5040426;28;19970;-65
2022/10/05 14:36:46;;;;;;;;;;;21.20;51.00;;;;;;5028824;28;19979;-65
2022/10/05 14:39:13;;;;;;;;;;;21.30;51.20;;;;;;5028774;28;19974;-65
2022/10/05 14:41:42;;;;;;;;;;;21.30;51.20;;;;;;5044976;28;19925;-64
2022/10/05 14:44:18;;;;;;;;;;;21.30;51.20;;;;;;5028639;28;19964;-66
2022/10/05 14:46:53;;;;;;;;;;;21.30;51.20;;;;;;5047061;28;19979;-64